Flight Track Log - Related Links

Times and Time Zones

All times are in EDT time to prevent confusion due to time zone crossing. See the SWA1046 flight status page for this flight to view local times or setup timezone preferences in your user account.

Time Position Orientation Groundspeed Altitude Reporting Facility
EDT Latitude Longitude Course Direction KTS MPH feet Rate Location/Type
Sun 03:23:22 PM 41.7500 -87.8667 225° Southwest 243 280 3,800  Level Chicago TRACON
Sun 03:24:14 PM 41.7061 -87.9158 220° Southwest 245 282 5,400 1,737 Climbing Chicago Center
Sun 03:25:16 PM 41.7197 -88.0103 281° West 282 325 7,100 2,129 Climbing Chicago Center
Sun 03:26:18 PM 41.7636 -88.0997 303° West 290 334 9,800 2,516 Climbing Chicago Center
Sun 03:27:20 PM 41.7656 -88.2089 271° West 302 348 12,300 2,855 Climbing Chicago Center
Sun 03:28:22 PM 41.7567 -88.3544 265° West 327 376 15,700 2,448 Climbing Chicago Center
Sun 03:29:25 PM 41.7978 -88.4767 294° West 377 434 17,400 2,016 Climbing Chicago Center
Sun 03:30:27 PM 41.8608 -88.5947 306° West 390 449 19,900 2,419 Climbing Chicago Center
Sun 03:31:29 PM 41.9278 -88.7150 307° West 403 464 22,400 2,226 Climbing Chicago Center
Sun 03:32:31 PM 41.9969 -88.8400 307° West 417 480 24,500 2,081 Climbing Chicago Center
Sun 03:33:33 PM 42.0817 -88.9892 307° West 430 495 26,700 1,887 Climbing Chicago Center
Sun 03:34:35 PM 42.1489 -89.1275 303° West 443 510 28,400 1,597 Climbing Chicago Center
Sun 03:35:37 PM 42.1606 -89.2986 275° West 461 531 30,000 1,694 Climbing Chicago Center
Sun 03:36:39 PM 42.1689 -89.4678 274° West 455 524 31,900 1,839 Climbing Chicago Center
Sun 03:37:41 PM 42.1806 -89.6653 275° West 454 522 33,800 1,597 Climbing Chicago Center
Sun 03:38:43 PM 42.1911 -89.8311 275° West 447 514 35,200 1,065 Climbing Chicago Center
Sun 03:39:45 PM 42.2086 -89.9839 279° West 447 514 36,000 387 Climbing Chicago Center
Sun 03:40:47 PM 42.2278 -90.1478 279° West 445 512 36,000  Level Chicago Center
Sun 03:41:49 PM 42.2494 -90.3439 279° West 445 512 36,000  Level Chicago Center
Sun 03:42:51 PM 42.2675 -90.5081 279° West 445 512 36,000  Level Chicago Center
Sun 03:43:54 PM 42.2850 -90.6714 278° West 444 511 36,000  Level Chicago Center
Sun 03:44:56 PM 42.3019 -90.8364 278° West 446 513 36,000  Level Chicago Center
Sun 03:45:58 PM 42.3192 -91.0003 278° West 444 511 36,000  Level Chicago Center
Sun 03:48:02 PM 42.3556 -91.3625 278° West 443 510 36,000  Level Chicago Center
Sun 03:49:04 PM 42.3722 -91.5283 278° West 446 513 36,000 339 Level Chicago Center
Sun 03:50:06 PM 42.3886 -91.6956 278° West 446 513 36,700 484 Climbing Chicago Center
Sun 03:51:08 PM 42.4047 -91.8633 277° West 450 518 37,000 387 Climbing Chicago Center
Sun 03:52:10 PM 42.4194 -92.0297 277° West 448 516 37,500 484 Climbing Chicago Center
Sun 03:53:12 PM 42.4361 -92.1933 278° West 443 510 38,000 242 Climbing Chicago Center
Sun 03:54:14 PM 42.4539 -92.3925 277° West 445 512 38,000  Level Chicago Center
Sun 03:55:16 PM 42.4611 -92.5589 273° West 447 514 38,000  Level Chicago Center
Sun 03:56:18 PM 42.4653 -92.7236 272° West 443 510 38,000  Level Chicago Center
Sun 03:57:20 PM 42.4686 -92.8911 272° West 447 514 38,000  Level Chicago Center
Sun 03:59:40 PM 42.4772 -93.2875 272° West 444 511 38,000  Level Minneapolis Center
Sun 04:00:42 PM 42.4806 -93.4533 272° West 445 512 38,000  Level Minneapolis Center
Sun 04:01:44 PM 42.4833 -93.6189 271° West 444 511 38,000  Level Minneapolis Center
Sun 04:02:46 PM 42.4858 -93.8161 271° West 442 509 38,000  Level Minneapolis Center
Sun 04:03:48 PM 42.4883 -93.9800 271° West 440 506 38,000  Level Minneapolis Center
Sun 04:04:50 PM 42.4919 -94.1422 272° West 436 502 38,000  Level Minneapolis Center
Sun 04:05:52 PM 42.4928 -94.3056 270° West 438 504 38,000  Level Minneapolis Center
Sun 04:06:54 PM 42.4939 -94.4683 271° West 437 503 38,000  Level Minneapolis Center
Sun 04:07:56 PM 42.4950 -94.6372 271° West 434 499 38,000  Level Minneapolis Center
Sun 04:08:58 PM 42.4978 -94.8325 271° West 434 499 38,000  Level Minneapolis Center
Sun 04:10:00 PM 42.4986 -94.9958 270° West 435 501 38,000  Level Minneapolis Center
Sun 04:11:00 PM 42.4975 -95.1532 269° West  Level FlightAware Approximate
Sun 04:12:05 PM 42.4986 -95.3228 269° West 437 503 38,000  Level Minneapolis Center
Sun 04:13:07 PM 42.4986 -95.4883 270° West 440 506 38,000  Level Minneapolis Center
Sun 04:14:09 PM 42.4992 -95.6847 270° West 437 503 38,000  Level Minneapolis Center
Sun 04:15:11 PM 42.4986 -95.8478 270° West 436 502 38,000  Level Minneapolis Center
Sun 04:16:13 PM 42.4972 -96.0108 269° West 436 502 38,000  Level Minneapolis Center
Sun 04:17:15 PM 42.4972 -96.1739 270° West 435 501 38,000  Level Minneapolis Center
Sun 04:18:17 PM 42.4956 -96.3356 269° West 431 496 38,000  Level Minneapolis Center
Sun 04:19:19 PM 42.4939 -96.4947 269° West 427 491 38,000  Level Minneapolis Center
Sun 04:20:21 PM 42.4917 -96.6889 269° West 429 494 38,000  Level Minneapolis Center
Sun 04:22:25 PM 42.4886 -97.0108 269° West 429 494 38,000  Level Minneapolis Center
Sun 04:23:27 PM 42.4861 -97.1714 269° West 428 493 38,000  Level Minneapolis Center
Sun 04:24:29 PM 42.4831 -97.3322 269° West 429 494 38,000  Level Minneapolis Center
Sun 04:25:31 PM 42.4808 -97.4908 269° West 424 488 38,000  Level Minneapolis Center
Sun 04:26:33 PM 42.4775 -97.6808 269° West 422 486 38,000  Level Minneapolis Center
Sun 04:27:35 PM 42.4742 -97.8367 268° West 418 481 38,000  Level Minneapolis Center
Sun 04:28:38 PM 42.4708 -97.9833 268° West 422 486 38,000  Level Minneapolis Center
Sun 04:29:40 PM 42.4669 -98.1700 268° West 414 476 38,000  Level Minneapolis Center
Sun 04:30:42 PM 42.4631 -98.3281 268° West 420 483 38,000  Level Minneapolis Center
Sun 04:31:44 PM 42.4592 -98.4825 268° West 414 476 38,000  Level Minneapolis Center
Sun 04:32:46 PM 42.4556 -98.6381 268° West 414 476 38,000  Level Minneapolis Center
Sun 04:33:48 PM 42.4508 -98.7925 268° West 412 474 38,000  Level Minneapolis Center
Sun 04:34:50 PM 42.4456 -98.9456 267° West 410 472 38,000  Level Minneapolis Center
Sun 04:35:52 PM 42.4400 -99.1289 268° West 408 470 38,000  Level Minneapolis Center
Sun 04:36:54 PM 42.4361 -99.2825 268° West 409 471 38,000  Level Minneapolis Center
Sun 04:37:56 PM 42.4306 -99.4358 267° West 410 472 38,000  Level Minneapolis Center
Sun 04:38:58 PM 42.4253 -99.5906 267° West 410 472 38,000  Level Minneapolis Center
Sun 04:40:00 PM 42.4192 -99.7442 267° West 412 474 38,000  Level Minneapolis Center
Sun 04:41:02 PM 42.4119 -99.9319 267° West 415 478 38,000  Level Minneapolis Center
Sun 04:42:16 PM 42.4050 -100.0989 267° West 416 479 38,000  Level Denver Center
Sun 04:43:18 PM 42.3983 -100.2703 267° West 411 473 38,000  Level Denver Center
Sun 04:44:20 PM 42.3917 -100.4178 267° West 411 473 38,000  Level Denver Center
Sun 04:45:21 PM 42.3844 -100.5911 267° West 412 474 38,000  Level Denver Center
Sun 04:46:23 PM 42.3772 -100.7392 266° West 412 474 38,000  Level Denver Center
Sun 04:47:25 PM 42.3694 -100.9133 267° West 416 479 38,000  Level Denver Center
Sun 04:48:27 PM 42.3628 -101.0600 267° West 411 473 38,000  Level Denver Center
Sun 04:49:29 PM 42.3542 -101.2339 266° West 414 476 38,000  Level Denver Center
Sun 04:50:31 PM 42.3456 -101.3817 266° West 414 476 38,000  Level Denver Center
Sun 04:51:33 PM 42.3369 -101.5553 266° West 417 480 38,000  Level Denver Center
Sun 04:52:47 PM 42.3297 -101.7042 266° West 416 479 38,000  Level Denver Center
Sun 04:53:49 PM 42.3186 -101.9086 266° West 421 484 38,000  Level Denver Center
Sun 04:54:51 PM 42.3097 -102.0594 265° West 421 484 38,000  Level Denver Center
Sun 04:55:53 PM 42.2997 -102.2361 266° West 423 487 38,000  Level Denver Center
Sun 04:56:55 PM 42.2900 -102.3869 265° West 421 484 38,000  Level Denver Center
Sun 04:57:57 PM 42.2794 -102.5642 265° West 426 490 38,000  Level Denver Center
Sun 04:58:59 PM 42.2700 -102.7158 265° West 423 487 38,000  Level Denver Center
Sun 05:00:01 PM 42.2600 -102.8656 265° West 420 483 38,000  Level Denver Center
Sun 05:01:15 PM 42.2483 -103.0408 265° West 420 483 38,000  Level Denver Center
Sun 05:02:17 PM 42.2350 -103.2403 265° West 418 481 38,000  Level Denver Center
Sun 05:03:19 PM 42.2244 -103.3883 265° West 415 478 38,000  Level Denver Center
Sun 05:04:21 PM 42.2139 -103.5364 265° West 415 478 38,000  Level Denver Center
Sun 05:05:23 PM 42.2022 -103.7106 265° West 419 482 38,000  Level Denver Center
Sun 05:06:25 PM 42.1914 -103.8600 264° West 418 481 38,000  Level Denver Center
Sun 05:07:39 PM 42.1778 -104.0364 264° West 421 484 38,000  Level Denver Center
Sun 05:08:41 PM 42.1628 -104.2378 264° West 422 486 38,000  Level Denver Center
Sun 05:09:43 PM 42.1503 -104.3894 264° West 422 486 38,000  Level Denver Center
Sun 05:10:45 PM 42.1389 -104.5414 264° West 423 487 38,000  Level Denver Center
Sun 05:11:47 PM 42.1256 -104.7175 264° West 421 484 38,000  Level Denver Center
Sun 05:12:48 PM 42.1153 -104.8425 264° West 419 482 38,000  Level Denver Center
Sun 05:13:50 PM 42.0989 -105.0419 264° West 417 480 38,000  Level Denver Center
Sun 05:14:52 PM 42.0858 -105.1908 263° West 417 480 38,000  Level Denver Center
Sun 05:15:54 PM 42.0725 -105.3425 263° West 424 488 38,000  Level Denver Center
Sun 05:16:56 PM 42.0581 -105.5181 264° West 424 488 38,000  Level Denver Center
Sun 05:17:58 PM 42.0450 -105.6717 264° West 429 494 38,000  Level Denver Center
Sun 05:19:00 PM 42.0289 -105.8481 263° West 426 490 38,000  Level Denver Center
Sun 05:20:02 PM 42.0136 -105.9994 262° West 427 491 38,000  Level Denver Center
Sun 05:21:04 PM 41.9972 -106.1781 263° West 429 494 38,000  Level Denver Center
Sun 05:22:06 PM 41.9839 -106.3317 263° West 431 496 38,000  Level Denver Center
Sun 05:23:08 PM 41.9678 -106.5089 263° West 429 494 38,000  Level Denver Center
Sun 05:24:10 PM 41.9517 -106.6586 262° West 428 493 38,000  Level Denver Center
Sun 05:25:12 PM 41.9356 -106.8353 263° West 428 493 38,000  Level Denver Center
Sun 05:26:14 PM 41.9194 -106.9858 262° West 427 491 38,000  Level Denver Center
Sun 05:28:02 PM 41.8906 -107.2642 262° West 429 494 38,000  Level Salt Lake Center
Sun 05:29:04 PM 41.8733 -107.4406 263° West 426 490 38,000  Level Salt Lake Center
Sun 05:30:06 PM 41.8561 -107.5928 261° West 430 495 38,000  Level Salt Lake Center
Sun 05:31:08 PM 41.8375 -107.7722 262° West 436 502 38,000  Level Salt Lake Center
Sun 05:32:10 PM 41.8203 -107.9250 261° West 436 502 38,000  Level Salt Lake Center
Sun 05:33:12 PM 41.8014 -108.1058 262° West 439 505 38,000  Level Salt Lake Center
Sun 05:34:13 PM 41.7844 -108.2606 262° West 441 507 38,000  Level Salt Lake Center
Sun 05:35:15 PM 41.7636 -108.4425 261° West 443 510 38,000  Level Salt Lake Center
Sun 05:36:17 PM 41.7456 -108.5994 261° West 446 513 38,000  Level Salt Lake Center
Sun 05:37:19 PM 41.7239 -108.7842 261° West 451 519 38,000  Level Salt Lake Center
Sun 05:38:21 PM 41.7056 -108.9414 261° West 450 518 38,000  Level Salt Lake Center
Sun 05:39:23 PM 41.6817 -109.1206 260° West 444 511 38,000  Level Salt Lake Center
Sun 05:40:25 PM 41.6478 -109.2739 254° West 452 520 38,000  Level Salt Lake Center
Sun 05:41:27 PM 41.6097 -109.4519 254° West 453 521 38,000  Level Salt Lake Center
Sun 05:42:29 PM 41.5761 -109.6036 254° West 450 518 38,000  Level Salt Lake Center
Sun 05:43:31 PM 41.5403 -109.7803 255° West 445 512 38,000  Level Salt Lake Center
Sun 05:44:33 PM 41.5089 -109.9322 255° West 446 513 38,000  Level Salt Lake Center
Sun 05:45:35 PM 41.4753 -110.1097 256° West 445 512 38,000  Level Salt Lake Center
Sun 05:46:37 PM 41.4592 -110.2636 262° West 439 505 38,000  Level Salt Lake Center
Sun 05:47:39 PM 41.4372 -110.4428 261° West 440 506 38,000  Level Salt Lake Center
Sun 05:48:41 PM 41.4183 -110.5972 261° West 442 509 38,000  Level Salt Lake Center
Sun 05:49:42 PM 41.3992 -110.7525 261° West 443 510 38,000  Level Salt Lake Center
Sun 05:50:44 PM 41.3761 -110.9331 260° West 444 511 38,000  Level Salt Lake Center
Sun 05:51:46 PM 41.3542 -111.0989 260° West 447 514 38,000  Level Salt Lake Center
Sun 05:52:48 PM 41.3336 -111.2617 261° West 448 516 38,000  Level Salt Lake Center
Sun 05:53:50 PM 41.3122 -111.4242 260° West 448 516 38,000  Level Salt Lake Center
Sun 05:54:51 PM 41.2906 -111.5853 260° West 447 514 38,000  Level Salt Lake Center
Sun 05:55:53 PM 41.2644 -111.7778 260° West 447 514 38,000  Level Salt Lake Center
Sun 05:56:55 PM 41.2431 -111.9364 260° West 445 512 38,000  Level Salt Lake Center
Sun 05:57:57 PM 41.2222 -112.0967 260° West 448 516 38,000  Level Salt Lake Center
Sun 05:58:58 PM 41.1989 -112.2564 259° West 446 513 38,000  Level Salt Lake Center
Sun 06:00:01 PM 41.1761 -112.4183 259° West 449 517 38,000  Level Salt Lake Center
Sun 06:01:02 PM 41.1497 -112.6119 260° West 447 514 38,000  Level Salt Lake Center
Sun 06:02:04 PM 41.1264 -112.7733 259° West 448 516 38,000  Level Salt Lake Center
Sun 06:03:06 PM 41.1025 -112.9344 259° West 447 514 38,000  Level Salt Lake Center
Sun 06:04:08 PM 41.0783 -113.0953 259° West 446 513 38,000  Level Salt Lake Center
Sun 06:05:09 PM 41.0564 -113.2556 260° West 444 511 38,000  Level Salt Lake Center
Sun 06:06:11 PM 41.0294 -113.4158 257° West 446 513 38,000  Level Salt Lake Center
Sun 06:07:13 PM 41.0053 -113.5767 259° West 446 513 38,000  Level Salt Lake Center
Sun 06:08:15 PM 40.9781 -113.7700 259° West 446 513 38,000  Level Salt Lake Center
Sun 06:09:16 PM 40.9525 -113.9308 258° West 447 514 38,000  Level Salt Lake Center
Sun 06:10:18 PM 40.9267 -114.0917 258° West 448 516 38,000  Level Salt Lake Center
Sun 06:11:20 PM 40.9031 -114.2508 259° West 444 511 38,000  Level Salt Lake Center
Sun 06:12:21 PM 40.8775 -114.4086 258° West 442 509 38,000  Level Salt Lake Center
Sun 06:13:23 PM 40.8503 -114.5794 258° West 441 507 38,000  Level Salt Lake Center
Sun 06:14:25 PM 40.8261 -114.7300 258° West 439 505 38,000  Level Salt Lake Center
Sun 06:15:26 PM 40.7922 -114.9053 256° West 439 505 38,000  Level Salt Lake Center
Sun 06:16:28 PM 40.7697 -115.0542 259° West 439 505 38,000  Level Salt Lake Center
Sun 06:17:30 PM 40.7389 -115.2294 257° West 438 504 38,000  Level Salt Lake Center
Sun 06:18:31 PM 40.7142 -115.3814 258° West 441 507 38,000  Level Salt Lake Center
Sun 06:19:33 PM 40.6842 -115.5572 257° West 442 509 38,000  Level Salt Lake Center
Sun 06:20:35 PM 40.6578 -115.7078 257° West 442 509 38,000  Level Salt Lake Center
Sun 06:21:36 PM 40.6328 -115.8583 258° West 440 506 38,000  Level Salt Lake Center
Sun 06:22:38 PM 40.6019 -116.0344 257° West 441 507 38,000  Level Salt Lake Center
Sun 06:23:40 PM 40.5758 -116.1856 257° West 442 509 38,000  Level Salt Lake Center
Sun 06:24:41 PM 40.5511 -116.3622 260° West 440 506 38,000  Level Salt Lake Center
Sun 06:25:43 PM 40.5339 -116.5142 262° West 441 507 38,000  Level Salt Lake Center
Sun 06:26:45 PM 40.5156 -116.6892 262° West 436 502 38,000  Level Salt Lake Center
Sun 06:27:46 PM 40.4992 -116.8389 262° West 437 503 38,000  Level Salt Lake Center
Sun 06:28:48 PM 40.4817 -117.0150 263° West 450 518 38,000  Level Salt Lake Center
Sun 06:29:50 PM 40.4572 -117.1622 258° West 443 510 38,000  Level Salt Lake Center
Sun 06:30:51 PM 40.4269 -117.3342 257° West 436 502 38,000  Level Salt Lake Center
Sun 06:31:53 PM 40.4011 -117.4825 257° West 436 502 38,000  Level Salt Lake Center
Sun 06:32:55 PM 40.3561 -117.6508 251° West 438 504 38,000  Level Salt Lake Center
Sun 06:33:40 PM 40.3333 -117.7467 253° West 435 501 38,000  Level Oakland Center
Sun 06:34:58 PM 40.2853 -117.9386 252° West 435 501 38,000 -261 Level Salt Lake Center
Sun 06:36:44 PM 40.2208 -118.2011 252° West 439 505 37,200 -1,250 Descending Oakland Center
Sun 06:37:46 PM 40.1742 -118.3867 252° West 448 516 34,500 -3,024 Descending Oakland Center
Sun 06:38:47 PM 40.1350 -118.5389 251° West 447 514 31,000 -2,732 Descending Oakland Center
Sun 06:39:49 PM 40.1028 -118.6947 255° West 450 518 28,900 -2,585 Descending Oakland Center
Sun 06:40:50 PM 40.0739 -118.8478 256° West 440 506 25,700 -3,191 Descending Oakland Center
Sun 06:42:42 PM 40.0167 -119.1333 255° West 426 490 19,700 -2,826 Descending Northern Cal TRACON
Sun 06:43:42 PM 39.9833 -119.2833 254° West 399 459 17,600 -2,374 Descending Northern Cal TRACON
Sun 06:44:13 PM 39.9750 -119.3394 259° West 392 451 16,100 -3,261 Descending Salt Lake Center
Sun 06:45:14 PM 39.9364 -119.4647 248° West 379 436 12,600 -2,942 Descending Salt Lake Center
Sun 06:45:57 PM 39.8775 -119.5378 224° Southwest 366 421 11,000 -1,500 Descending Oakland Center
Sun 06:46:58 PM 39.8111 -119.6217 224° Southwest 343 395 10,000 -984 Descending Oakland Center

Login

Don't have an account? Register now (free) for customized features, flight alerts, and more!